sensor_id;sensor_type;location;lat;lon;timestamp;P1;durP1;ratioP1;P2;durP2;ratioP2
16928;SDS011;8581;47.334;11.190;2022-10-16T00:02:05;9.97;;;7.87;;
16928;SDS011;8581;47.334;11.190;2022-10-16T00:04:37;10.23;;;7.77;;
16928;SDS011;8581;47.334;11.190;2022-10-16T00:07:08;9.27;;;7.23;;
16928;SDS011;8581;47.334;11.190;2022-10-16T00:09:40;9.17;;;7.87;;
16928;SDS011;8581;47.334;11.190;2022-10-16T00:12:11;8.23;;;7.30;;
16928;SDS011;8581;47.334;11.190;2022-10-16T00:14:43;9.30;;;7.70;;
16928;SDS011;8581;47.334;11.190;2022-10-16T00:17:15;8.27;;;7.37;;
16928;SDS011;8581;47.334;11.190;2022-10-16T00:19:46;11.93;;;8.07;;
16928;SDS011;8581;47.334;11.190;2022-10-16T00:22:18;11.43;;;8.40;;
16928;SDS011;8581;47.334;11.190;2022-10-16T00:24:49;10.17;;;8.60;;
16928;SDS011;8581;47.334;11.190;2022-10-16T00:27:21;11.17;;;8.77;;
16928;SDS011;8581;47.334;11.190;2022-10-16T00:29:53;13.17;;;9.57;;
16928;SDS011;8581;47.334;11.190;2022-10-16T00:32:24;10.90;;;8.90;;
16928;SDS011;8581;47.334;11.190;2022-10-16T00:34:56;12.07;;;9.33;;
16928;SDS011;8581;47.334;11.190;2022-10-16T00:37:27;13.40;;;9.67;;
16928;SDS011;8581;47.334;11.190;2022-10-16T00:39:59;15.43;;;10.20;;
16928;SDS011;8581;47.334;11.190;2022-10-16T00:42:31;13.97;;;10.03;;
16928;SDS011;8581;47.334;11.190;2022-10-16T00:45:02;16.33;;;10.07;;
16928;SDS011;8581;47.334;11.190;2022-10-16T00:47:36;11.37;;;9.80;;
16928;SDS011;8581;47.334;11.190;2022-10-16T00:50:09;15.07;;;9.70;;
16928;SDS011;8581;47.334;11.190;2022-10-16T00:52:41;12.03;;;9.30;;
16928;SDS011;8581;47.334;11.190;2022-10-16T00:55:12;10.87;;;8.80;;
16928;SDS011;8581;47.334;11.190;2022-10-16T00:57:44;12.57;;;9.27;;
16928;SDS011;8581;47.334;11.190;2022-10-16T01:00:16;12.57;;;8.77;;
16928;SDS011;8581;47.334;11.190;2022-10-16T01:02:52;11.93;;;9.00;;
16928;SDS011;8581;47.334;11.190;2022-10-16T01:05:28;10.80;;;8.90;;
16928;SDS011;8581;47.334;11.190;2022-10-16T01:08:05;11.30;;;8.70;;
16928;SDS011;8581;47.334;11.190;2022-10-16T01:10:52;10.03;;;8.20;;
16928;SDS011;8581;47.334;11.190;2022-10-16T01:13:25;12.47;;;8.73;;
16928;SDS011;8581;47.334;11.190;2022-10-16T01:15:59;11.60;;;9.00;;
16928;SDS011;8581;47.334;11.190;2022-10-16T01:18:34;13.43;;;9.00;;
16928;SDS011;8581;47.334;11.190;2022-10-16T01:21:22;11.83;;;8.00;;
16928;SDS011;8581;47.334;11.190;2022-10-16T01:24:01;11.40;;;8.60;;
16928;SDS011;8581;47.334;11.190;2022-10-16T01:26:43;10.30;;;7.97;;
16928;SDS011;8581;47.334;11.190;2022-10-16T01:29:18;12.07;;;8.23;;
16928;SDS011;8581;47.334;11.190;2022-10-16T01:31:49;9.63;;;7.87;;
16928;SDS011;8581;47.334;11.190;2022-10-16T01:34:22;12.47;;;8.77;;
16928;SDS011;8581;47.334;11.190;2022-10-16T01:36:53;12.67;;;9.50;;
16928;SDS011;8581;47.334;11.190;2022-10-16T01:39:26;13.23;;;9.97;;
16928;SDS011;8581;47.334;11.190;2022-10-16T01:42:01;9.97;;;8.80;;
16928;SDS011;8581;47.334;11.190;2022-10-16T01:44:32;11.80;;;9.43;;
16928;SDS011;8581;47.334;11.190;2022-10-16T01:47:03;11.77;;;9.33;;
16928;SDS011;8581;47.334;11.190;2022-10-16T01:49:35;10.77;;;9.23;;
16928;SDS011;8581;47.334;11.190;2022-10-16T01:52:08;11.10;;;8.43;;
16928;SDS011;8581;47.334;11.190;2022-10-16T01:54:39;11.33;;;9.00;;
16928;SDS011;8581;47.334;11.190;2022-10-16T01:57:09;12.23;;;8.73;;
16928;SDS011;8581;47.334;11.190;2022-10-16T01:59:42;13.40;;;9.37;;
16928;SDS011;8581;47.334;11.190;2022-10-16T02:02:12;10.33;;;8.30;;
16928;SDS011;8581;47.334;11.190;2022-10-16T02:04:46;11.13;;;9.43;;
16928;SDS011;8581;47.334;11.190;2022-10-16T02:07:16;12.27;;;9.43;;
16928;SDS011;8581;47.334;11.190;2022-10-16T02:09:48;13.77;;;10.03;;
16928;SDS011;8581;47.334;11.190;2022-10-16T02:12:25;11.57;;;9.93;;
16928;SDS011;8581;47.334;11.190;2022-10-16T02:14:55;13.03;;;9.70;;
16928;SDS011;8581;47.334;11.190;2022-10-16T02:17:26;12.37;;;9.93;;
16928;SDS011;8581;47.334;11.190;2022-10-16T02:19:58;12.03;;;9.93;;
16928;SDS011;8581;47.334;11.190;2022-10-16T02:22:32;12.13;;;9.40;;
16928;SDS011;8581;47.334;11.190;2022-10-16T02:25:08;12.97;;;8.87;;
16928;SDS011;8581;47.334;11.190;2022-10-16T02:27:45;11.73;;;8.73;;
16928;SDS011;8581;47.334;11.190;2022-10-16T02:33:07;11.90;;;9.30;;
16928;SDS011;8581;47.334;11.190;2022-10-16T02:35:38;12.73;;;9.30;;
16928;SDS011;8581;47.334;11.190;2022-10-16T02:38:10;12.83;;;9.23;;
16928;SDS011;8581;47.334;11.190;2022-10-16T02:40:42;11.67;;;9.70;;
16928;SDS011;8581;47.334;11.190;2022-10-16T02:43:13;13.47;;;9.57;;
16928;SDS011;8581;47.334;11.190;2022-10-16T02:45:45;13.17;;;9.23;;
16928;SDS011;8581;47.334;11.190;2022-10-16T02:48:16;12.00;;;8.83;;
16928;SDS011;8581;47.334;11.190;2022-10-16T02:50:48;12.63;;;8.97;;
16928;SDS011;8581;47.334;11.190;2022-10-16T02:53:19;11.80;;;9.27;;
16928;SDS011;8581;47.334;11.190;2022-10-16T02:55:51;11.57;;;9.10;;
16928;SDS011;8581;47.334;11.190;2022-10-16T02:58:23;10.23;;;9.17;;
16928;SDS011;8581;47.334;11.190;2022-10-16T03:00:54;12.17;;;8.40;;
16928;SDS011;8581;47.334;11.190;2022-10-16T03:03:26;9.97;;;8.10;;
16928;SDS011;8581;47.334;11.190;2022-10-16T03:05:57;10.13;;;8.67;;
16928;SDS011;8581;47.334;11.190;2022-10-16T03:08:29;11.33;;;8.90;;
16928;SDS011;8581;47.334;11.190;2022-10-16T03:11:01;9.77;;;7.80;;
16928;SDS011;8581;47.334;11.190;2022-10-16T03:13:32;12.90;;;8.67;;
16928;SDS011;8581;47.334;11.190;2022-10-16T03:16:04;10.53;;;8.40;;
16928;SDS011;8581;47.334;11.190;2022-10-16T03:18:35;10.90;;;8.27;;
16928;SDS011;8581;47.334;11.190;2022-10-16T03:21:07;10.20;;;7.77;;
16928;SDS011;8581;47.334;11.190;2022-10-16T03:23:39;9.47;;;7.93;;
16928;SDS011;8581;47.334;11.190;2022-10-16T03:26:10;10.77;;;8.53;;
16928;SDS011;8581;47.334;11.190;2022-10-16T03:28:42;9.83;;;7.70;;
16928;SDS011;8581;47.334;11.190;2022-10-16T03:31:13;9.57;;;7.83;;
16928;SDS011;8581;47.334;11.190;2022-10-16T03:33:45;9.30;;;8.30;;
16928;SDS011;8581;47.334;11.190;2022-10-16T03:36:17;10.83;;;8.57;;
16928;SDS011;8581;47.334;11.190;2022-10-16T03:38:48;9.67;;;8.43;;
16928;SDS011;8581;47.334;11.190;2022-10-16T03:41:20;9.20;;;8.10;;
16928;SDS011;8581;47.334;11.190;2022-10-16T03:43:51;8.60;;;7.20;;
16928;SDS011;8581;47.334;11.190;2022-10-16T03:46:23;8.87;;;7.97;;
16928;SDS011;8581;47.334;11.190;2022-10-16T03:48:54;9.07;;;7.90;;
16928;SDS011;8581;47.334;11.190;2022-10-16T03:51:26;8.70;;;7.87;;
16928;SDS011;8581;47.334;11.190;2022-10-16T03:53:58;9.73;;;7.57;;
16928;SDS011;8581;47.334;11.190;2022-10-16T03:56:29;8.03;;;7.20;;
16928;SDS011;8581;47.334;11.190;2022-10-16T03:59:01;7.63;;;6.87;;
16928;SDS011;8581;47.334;11.190;2022-10-16T04:01:32;7.17;;;6.47;;
16928;SDS011;8581;47.334;11.190;2022-10-16T04:04:04;7.17;;;6.47;;
16928;SDS011;8581;47.334;11.190;2022-10-16T04:06:36;8.80;;;6.90;;
16928;SDS011;8581;47.334;11.190;2022-10-16T04:09:07;9.03;;;6.80;;
16928;SDS011;8581;47.334;11.190;2022-10-16T04:11:39;7.53;;;6.70;;
16928;SDS011;8581;47.334;11.190;2022-10-16T04:14:10;7.47;;;6.77;;
16928;SDS011;8581;47.334;11.190;2022-10-16T04:16:42;9.93;;;7.07;;
16928;SDS011;8581;47.334;11.190;2022-10-16T04:19:13;8.80;;;6.97;;
16928;SDS011;8581;47.334;11.190;2022-10-16T04:21:45;7.83;;;6.90;;
16928;SDS011;8581;47.334;11.190;2022-10-16T04:24:17;8.60;;;7.10;;
16928;SDS011;8581;47.334;11.190;2022-10-16T04:26:48;7.63;;;6.93;;
16928;SDS011;8581;47.334;11.190;2022-10-16T04:29:20;7.90;;;7.07;;
16928;SDS011;8581;47.334;11.190;2022-10-16T04:31:51;7.57;;;6.67;;
16928;SDS011;8581;47.334;11.190;2022-10-16T04:34:23;10.07;;;7.03;;
16928;SDS011;8581;47.334;11.190;2022-10-16T04:36:55;7.20;;;6.50;;
16928;SDS011;8581;47.334;11.190;2022-10-16T04:39:26;8.63;;;6.97;;
16928;SDS011;8581;47.334;11.190;2022-10-16T04:41:58;7.37;;;6.67;;
16928;SDS011;8581;47.334;11.190;2022-10-16T04:44:29;8.93;;;7.40;;
16928;SDS011;8581;47.334;11.190;2022-10-16T04:47:01;9.20;;;7.17;;
16928;SDS011;8581;47.334;11.190;2022-10-16T04:49:33;7.40;;;6.70;;
16928;SDS011;8581;47.334;11.190;2022-10-16T04:52:04;8.40;;;7.40;;
16928;SDS011;8581;47.334;11.190;2022-10-16T04:54:36;8.20;;;7.40;;
16928;SDS011;8581;47.334;11.190;2022-10-16T04:57:07;7.70;;;6.90;;
16928;SDS011;8581;47.334;11.190;2022-10-16T04:59:39;9.87;;;6.73;;
16928;SDS011;8581;47.334;11.190;2022-10-16T05:02:10;8.27;;;7.47;;
16928;SDS011;8581;47.334;11.190;2022-10-16T05:04:42;6.90;;;6.30;;
16928;SDS011;8581;47.334;11.190;2022-10-16T05:07:14;8.97;;;7.10;;
16928;SDS011;8581;47.334;11.190;2022-10-16T05:09:45;8.77;;;6.67;;
16928;SDS011;8581;47.334;11.190;2022-10-16T05:12:17;8.17;;;7.27;;
16928;SDS011;8581;47.334;11.190;2022-10-16T05:14:48;8.03;;;7.23;;
16928;SDS011;8581;47.334;11.190;2022-10-16T05:17:20;7.57;;;6.80;;
16928;SDS011;8581;47.334;11.190;2022-10-16T05:19:52;9.83;;;7.00;;
16928;SDS011;8581;47.334;11.190;2022-10-16T05:22:23;8.43;;;7.17;;
16928;SDS011;8581;47.334;11.190;2022-10-16T05:24:55;8.70;;;7.50;;
16928;SDS011;8581;47.334;11.190;2022-10-16T05:27:26;7.97;;;7.10;;
16928;SDS011;8581;47.334;11.190;2022-10-16T05:29:58;8.73;;;6.80;;
16928;SDS011;8581;47.334;11.190;2022-10-16T05:32:30;10.03;;;7.93;;
16928;SDS011;8581;47.334;11.190;2022-10-16T05:35:01;9.63;;;8.47;;
16928;SDS011;8581;47.334;11.190;2022-10-16T05:37:33;10.80;;;8.53;;
16928;SDS011;8581;47.334;11.190;2022-10-16T05:40:05;11.03;;;7.93;;
16928;SDS011;8581;47.334;11.190;2022-10-16T05:42:37;10.00;;;7.83;;
16928;SDS011;8581;47.334;11.190;2022-10-16T05:45:09;10.53;;;8.33;;
16928;SDS011;8581;47.334;11.190;2022-10-16T05:47:41;8.90;;;7.77;;
16928;SDS011;8581;47.334;11.190;2022-10-16T05:50:12;8.03;;;7.17;;
16928;SDS011;8581;47.334;11.190;2022-10-16T05:52:44;9.60;;;6.93;;
16928;SDS011;8581;47.334;11.190;2022-10-16T05:55:15;8.43;;;7.43;;
16928;SDS011;8581;47.334;11.190;2022-10-16T05:57:47;8.90;;;7.73;;
16928;SDS011;8581;47.334;11.190;2022-10-16T06:00:19;12.83;;;8.07;;
16928;SDS011;8581;47.334;11.190;2022-10-16T06:02:50;8.47;;;7.27;;
16928;SDS011;8581;47.334;11.190;2022-10-16T06:05:22;8.17;;;7.37;;
16928;SDS011;8581;47.334;11.190;2022-10-16T06:07:53;7.73;;;6.77;;
16928;SDS011;8581;47.334;11.190;2022-10-16T06:10:25;7.60;;;6.80;;
16928;SDS011;8581;47.334;11.190;2022-10-16T06:12:56;8.43;;;7.27;;
16928;SDS011;8581;47.334;11.190;2022-10-16T06:15:28;8.53;;;7.67;;
16928;SDS011;8581;47.334;11.190;2022-10-16T06:18:00;8.20;;;7.03;;
16928;SDS011;8581;47.334;11.190;2022-10-16T06:20:31;8.23;;;7.43;;
16928;SDS011;8581;47.334;11.190;2022-10-16T06:23:03;11.50;;;8.47;;
16928;SDS011;8581;47.334;11.190;2022-10-16T06:25:34;9.40;;;7.97;;
16928;SDS011;8581;47.334;11.190;2022-10-16T06:28:06;8.38;;;7.50;;
16928;SDS011;8581;47.334;11.190;2022-10-16T06:30:38;7.87;;;7.17;;
16928;SDS011;8581;47.334;11.190;2022-10-16T06:33:10;8.13;;;7.33;;
16928;SDS011;8581;47.334;11.190;2022-10-16T06:35:41;7.20;;;6.50;;
16928;SDS011;8581;47.334;11.190;2022-10-16T06:38:12;7.70;;;7.00;;
16928;SDS011;8581;47.334;11.190;2022-10-16T06:40:44;8.57;;;7.40;;
16928;SDS011;8581;47.334;11.190;2022-10-16T06:43:16;9.60;;;8.53;;
16928;SDS011;8581;47.334;11.190;2022-10-16T06:45:53;9.10;;;8.13;;
16928;SDS011;8581;47.334;11.190;2022-10-16T06:48:25;8.57;;;7.53;;
16928;SDS011;8581;47.334;11.190;2022-10-16T06:50:59;9.00;;;8.10;;
16928;SDS011;8581;47.334;11.190;2022-10-16T06:53:31;8.03;;;7.27;;
16928;SDS011;8581;47.334;11.190;2022-10-16T06:58:43;8.20;;;7.40;;
16928;SDS011;8581;47.334;11.190;2022-10-16T07:01:15;9.90;;;8.47;;
16928;SDS011;8581;47.334;11.190;2022-10-16T07:03:46;10.27;;;9.10;;
16928;SDS011;8581;47.334;11.190;2022-10-16T07:06:19;8.30;;;7.50;;
16928;SDS011;8581;47.334;11.190;2022-10-16T07:08:50;8.37;;;7.57;;
16928;SDS011;8581;47.334;11.190;2022-10-16T07:11:22;8.23;;;7.20;;
16928;SDS011;8581;47.334;11.190;2022-10-16T07:13:53;8.73;;;7.83;;
16928;SDS011;8581;47.334;11.190;2022-10-16T07:16:26;8.27;;;7.43;;
16928;SDS011;8581;47.334;11.190;2022-10-16T07:18:56;8.33;;;7.53;;
16928;SDS011;8581;47.334;11.190;2022-10-16T07:21:30;8.10;;;7.40;;
16928;SDS011;8581;47.334;11.190;2022-10-16T07:24:00;8.13;;;7.33;;
16928;SDS011;8581;47.334;11.190;2022-10-16T07:26:33;7.03;;;6.43;;
16928;SDS011;8581;47.334;11.190;2022-10-16T07:29:03;6.70;;;6.10;;
16928;SDS011;8581;47.334;11.190;2022-10-16T07:31:35;6.80;;;6.10;;
16928;SDS011;8581;47.334;11.190;2022-10-16T07:34:07;6.10;;;5.40;;
16928;SDS011;8581;47.334;11.190;2022-10-16T07:36:38;7.37;;;5.10;;
16928;SDS011;8581;47.334;11.190;2022-10-16T07:39:10;5.00;;;4.60;;
16928;SDS011;8581;47.334;11.190;2022-10-16T07:41:41;5.33;;;4.57;;
16928;SDS011;8581;47.334;11.190;2022-10-16T07:44:13;6.17;;;4.00;;
16928;SDS011;8581;47.334;11.190;2022-10-16T07:46:51;3.57;;;3.27;;
16928;SDS011;8581;47.334;11.190;2022-10-16T07:49:23;5.33;;;3.80;;
16928;SDS011;8581;47.334;11.190;2022-10-16T07:51:55;5.10;;;3.93;;
16928;SDS011;8581;47.334;11.190;2022-10-16T07:54:26;4.43;;;3.80;;
16928;SDS011;8581;47.334;11.190;2022-10-16T07:56:58;3.73;;;3.43;;
16928;SDS011;8581;47.334;11.190;2022-10-16T07:59:29;4.43;;;3.40;;
16928;SDS011;8581;47.334;11.190;2022-10-16T08:02:01;4.07;;;3.43;;
16928;SDS011;8581;47.334;11.190;2022-10-16T08:04:33;3.80;;;3.50;;
16928;SDS011;8581;47.334;11.190;2022-10-16T08:07:06;4.53;;;3.70;;
16928;SDS011;8581;47.334;11.190;2022-10-16T08:09:36;3.60;;;3.30;;
16928;SDS011;8581;47.334;11.190;2022-10-16T08:12:07;3.77;;;3.40;;
16928;SDS011;8581;47.334;11.190;2022-10-16T08:14:39;4.43;;;3.40;;
16928;SDS011;8581;47.334;11.190;2022-10-16T08:17:13;3.87;;;3.53;;
16928;SDS011;8581;47.334;11.190;2022-10-16T08:19:45;6.40;;;3.70;;
16928;SDS011;8581;47.334;11.190;2022-10-16T08:22:17;3.73;;;3.43;;
16928;SDS011;8581;47.334;11.190;2022-10-16T08:24:48;3.87;;;3.57;;
16928;SDS011;8581;47.334;11.190;2022-10-16T08:27:20;4.87;;;3.73;;
16928;SDS011;8581;47.334;11.190;2022-10-16T08:29:53;3.67;;;3.37;;
16928;SDS011;8581;47.334;11.190;2022-10-16T08:32:26;5.60;;;3.60;;
16928;SDS011;8581;47.334;11.190;2022-10-16T08:34:58;4.73;;;3.83;;
16928;SDS011;8581;47.334;11.190;2022-10-16T08:37:30;4.03;;;3.63;;
16928;SDS011;8581;47.334;11.190;2022-10-16T08:40:14;5.43;;;3.57;;
16928;SDS011;8581;47.334;11.190;2022-10-16T08:43:09;3.50;;;3.20;;
16928;SDS011;8581;47.334;11.190;2022-10-16T08:45:44;3.57;;;3.27;;
16928;SDS011;8581;47.334;11.190;2022-10-16T08:48:17;4.00;;;3.70;;
16928;SDS011;8581;47.334;11.190;2022-10-16T08:50:56;3.50;;;3.20;;
16928;SDS011;8581;47.334;11.190;2022-10-16T08:53:31;4.43;;;3.53;;
16928;SDS011;8581;47.334;11.190;2022-10-16T08:56:01;3.70;;;3.40;;
16928;SDS011;8581;47.334;11.190;2022-10-16T08:58:33;4.53;;;3.50;;
16928;SDS011;8581;47.334;11.190;2022-10-16T09:01:09;3.90;;;3.60;;
16928;SDS011;8581;47.334;11.190;2022-10-16T09:03:55;4.42;;;3.75;;
16928;SDS011;8581;47.334;11.190;2022-10-16T09:06:29;4.20;;;3.80;;
16928;SDS011;8581;47.334;11.190;2022-10-16T09:11:48;3.80;;;3.50;;
16928;SDS011;8581;47.334;11.190;2022-10-16T09:14:37;3.65;;;3.35;;
16928;SDS011;8581;47.334;11.190;2022-10-16T09:20:25;3.35;;;3.05;;
16928;SDS011;8581;47.334;11.190;2022-10-16T09:23:18;3.95;;;3.00;;
16928;SDS011;8581;47.334;11.190;2022-10-16T09:25:50;5.62;;;3.20;;
16928;SDS011;8581;47.334;11.190;2022-10-16T09:28:21;3.85;;;3.20;;
16928;SDS011;8581;47.334;11.190;2022-10-16T09:30:53;4.00;;;3.40;;
16928;SDS011;8581;47.334;11.190;2022-10-16T09:33:27;3.92;;;3.58;;
16928;SDS011;8581;47.334;11.190;2022-10-16T09:35:57;3.25;;;2.95;;
16928;SDS011;8581;47.334;11.190;2022-10-16T09:38:30;3.47;;;3.17;;
16928;SDS011;8581;47.334;11.190;2022-10-16T09:41:02;4.30;;;3.10;;
16928;SDS011;8581;47.334;11.190;2022-10-16T09:43:39;3.62;;;3.27;;
16928;SDS011;8581;47.334;11.190;2022-10-16T09:49:01;4.85;;;3.60;;
16928;SDS011;8581;47.334;11.190;2022-10-16T09:51:34;3.30;;;3.00;;
16928;SDS011;8581;47.334;11.190;2022-10-16T09:57:03;4.08;;;3.67;;
16928;SDS011;8581;47.334;11.190;2022-10-16T09:59:26;3.50;;;3.20;;
16928;SDS011;8581;47.334;11.190;2022-10-16T10:02:00;4.17;;;3.10;;
16928;SDS011;8581;47.334;11.190;2022-10-16T10:04:37;4.30;;;3.20;;
16928;SDS011;8581;47.334;11.190;2022-10-16T10:07:01;3.58;;;3.20;;
16928;SDS011;8581;47.334;11.190;2022-10-16T10:09:34;3.60;;;3.35;;
16928;SDS011;8581;47.334;11.190;2022-10-16T10:14:51;3.02;;;2.80;;
16928;SDS011;8581;47.334;11.190;2022-10-16T10:17:23;3.08;;;2.80;;
16928;SDS011;8581;47.334;11.190;2022-10-16T10:19:56;3.30;;;3.00;;
16928;SDS011;8581;47.334;11.190;2022-10-16T10:22:38;4.37;;;3.15;;
16928;SDS011;8581;47.334;11.190;2022-10-16T10:26:18;4.17;;;3.00;;
16928;SDS011;8581;47.334;11.190;2022-10-16T10:28:17;3.42;;;3.10;;
16928;SDS011;8581;47.334;11.190;2022-10-16T10:30:51;2.65;;;2.45;;
16928;SDS011;8581;47.334;11.190;2022-10-16T10:33:28;3.10;;;2.40;;
16928;SDS011;8581;47.334;11.190;2022-10-16T10:36:33;2.90;;;2.70;;
16928;SDS011;8581;47.334;11.190;2022-10-16T10:38:51;3.65;;;2.67;;
16928;SDS011;8581;47.334;11.190;2022-10-16T10:47:05;2.40;;;2.20;;
16928;SDS011;8581;47.334;11.190;2022-10-16T10:49:39;2.50;;;2.30;;
16928;SDS011;8581;47.334;11.190;2022-10-16T10:52:12;2.30;;;2.10;;
16928;SDS011;8581;47.334;11.190;2022-10-16T10:58:35;2.75;;;2.02;;
16928;SDS011;8581;47.334;11.190;2022-10-16T11:01:11;1.98;;;1.87;;
16928;SDS011;8581;47.334;11.190;2022-10-16T11:06:33;2.10;;;2.00;;
16928;SDS011;8581;47.334;11.190;2022-10-16T11:09:10;4.05;;;1.92;;
16928;SDS011;8581;47.334;11.190;2022-10-16T11:11:43;1.80;;;1.70;;
16928;SDS011;8581;47.334;11.190;2022-10-16T11:16:52;1.70;;;1.60;;
16928;SDS011;8581;47.334;11.190;2022-10-16T11:19:28;1.65;;;1.52;;
16928;SDS011;8581;47.334;11.190;2022-10-16T11:22:01;1.50;;;1.40;;
16928;SDS011;8581;47.334;11.190;2022-10-16T11:27:16;1.60;;;1.50;;
16928;SDS011;8581;47.334;11.190;2022-10-16T11:29:49;1.60;;;1.50;;
16928;SDS011;8581;47.334;11.190;2022-10-16T11:32:23;1.60;;;1.50;;
16928;SDS011;8581;47.334;11.190;2022-10-16T11:34:57;1.92;;;1.72;;
16928;SDS011;8581;47.334;11.190;2022-10-16T11:37:28;1.85;;;1.75;;
16928;SDS011;8581;47.334;11.190;2022-10-16T11:39:59;1.65;;;1.55;;
16928;SDS011;8581;47.334;11.190;2022-10-16T11:42:32;1.75;;;1.65;;
16928;SDS011;8581;47.334;11.190;2022-10-16T11:45:08;1.72;;;1.62;;
16928;SDS011;8581;47.334;11.190;2022-10-16T11:47:41;1.80;;;1.70;;
16928;SDS011;8581;47.334;11.190;2022-10-16T11:50:17;2.37;;;1.45;;
16928;SDS011;8581;47.334;11.190;2022-10-16T11:52:52;1.90;;;1.67;;
16928;SDS011;8581;47.334;11.190;2022-10-16T11:55:27;3.08;;;2.02;;
16928;SDS011;8581;47.334;11.190;2022-10-16T11:58:00;2.58;;;2.10;;
16928;SDS011;8581;47.334;11.190;2022-10-16T12:00:36;1.90;;;1.80;;
16928;SDS011;8581;47.334;11.190;2022-10-16T12:03:12;2.40;;;1.75;;
16928;SDS011;8581;47.334;11.190;2022-10-16T12:06:51;1.85;;;1.75;;
16928;SDS011;8581;47.334;11.190;2022-10-16T12:08:36;2.15;;;1.67;;
16928;SDS011;8581;47.334;11.190;2022-10-16T12:11:20;2.17;;;1.87;;
16928;SDS011;8581;47.334;11.190;2022-10-16T12:13:41;3.08;;;1.72;;
16928;SDS011;8581;47.334;11.190;2022-10-16T12:16:20;1.40;;;1.30;;
16928;SDS011;8581;47.334;11.190;2022-10-16T12:19:03;0.90;;;0.90;;
16928;SDS011;8581;47.334;11.190;2022-10-16T12:21:39;1.32;;;1.30;;
16928;SDS011;8581;47.334;11.190;2022-10-16T12:27:02;2.10;;;2.00;;
16928;SDS011;8581;47.334;11.190;2022-10-16T12:29:37;2.20;;;2.10;;
16928;SDS011;8581;47.334;11.190;2022-10-16T12:34:53;2.40;;;2.30;;
16928;SDS011;8581;47.334;11.190;2022-10-16T12:37:26;2.10;;;2.00;;
16928;SDS011;8581;47.334;11.190;2022-10-16T12:39:57;2.20;;;2.10;;
16928;SDS011;8581;47.334;11.190;2022-10-16T12:42:32;1.82;;;1.72;;
16928;SDS011;8581;47.334;11.190;2022-10-16T12:45:13;1.60;;;1.50;;
16928;SDS011;8581;47.334;11.190;2022-10-16T12:47:37;1.95;;;1.85;;
16928;SDS011;8581;47.334;11.190;2022-10-16T12:52:51;2.50;;;1.98;;
16928;SDS011;8581;47.334;11.190;2022-10-16T12:55:23;2.70;;;2.08;;
16928;SDS011;8581;47.334;11.190;2022-10-16T12:58:00;2.37;;;2.20;;
16928;SDS011;8581;47.334;11.190;2022-10-16T13:03:31;2.10;;;2.00;;
16928;SDS011;8581;47.334;11.190;2022-10-16T13:10:02;2.20;;;2.10;;
16928;SDS011;8581;47.334;11.190;2022-10-16T13:14:39;2.40;;;2.17;;
16928;SDS011;8581;47.334;11.190;2022-10-16T13:17:20;2.17;;;2.08;;
16928;SDS011;8581;47.334;11.190;2022-10-16T13:20:12;2.40;;;1.90;;
16928;SDS011;8581;47.334;11.190;2022-10-16T13:22:48;2.20;;;2.10;;
16928;SDS011;8581;47.334;11.190;2022-10-16T13:25:35;2.62;;;1.80;;
16928;SDS011;8581;47.334;11.190;2022-10-16T13:28:19;2.20;;;2.10;;
16928;SDS011;8581;47.334;11.190;2022-10-16T13:30:51;2.12;;;1.98;;
16928;SDS011;8581;47.334;11.190;2022-10-16T13:33:27;2.80;;;2.60;;
16928;SDS011;8581;47.334;11.190;2022-10-16T13:36:04;3.15;;;2.60;;
16928;SDS011;8581;47.334;11.190;2022-10-16T13:38:36;3.35;;;2.65;;
16928;SDS011;8581;47.334;11.190;2022-10-16T13:41:14;2.50;;;2.30;;
16928;SDS011;8581;47.334;11.190;2022-10-16T13:43:49;3.10;;;2.60;;
16928;SDS011;8581;47.334;11.190;2022-10-16T13:46:22;2.30;;;2.10;;
16928;SDS011;8581;47.334;11.190;2022-10-16T13:48:57;2.72;;;2.33;;
16928;SDS011;8581;47.334;11.190;2022-10-16T13:51:30;2.80;;;2.22;;
16928;SDS011;8581;47.334;11.190;2022-10-16T13:54:01;2.67;;;2.05;;
16928;SDS011;8581;47.334;11.190;2022-10-16T13:56:33;2.77;;;2.22;;
16928;SDS011;8581;47.334;11.190;2022-10-16T13:59:06;2.30;;;2.20;;
16928;SDS011;8581;47.334;11.190;2022-10-16T14:01:40;3.08;;;2.20;;
16928;SDS011;8581;47.334;11.190;2022-10-16T14:04:12;1.90;;;1.80;;
16928;SDS011;8581;47.334;11.190;2022-10-16T14:06:44;2.00;;;1.90;;
16928;SDS011;8581;47.334;11.190;2022-10-16T14:11:54;4.50;;;2.20;;
16928;SDS011;8581;47.334;11.190;2022-10-16T14:14:26;2.20;;;2.05;;
16928;SDS011;8581;47.334;11.190;2022-10-16T14:16:57;2.10;;;2.00;;
16928;SDS011;8581;47.334;11.190;2022-10-16T14:19:29;2.15;;;1.98;;
16928;SDS011;8581;47.334;11.190;2022-10-16T14:22:00;2.05;;;1.95;;
16928;SDS011;8581;47.334;11.190;2022-10-16T14:24:33;2.60;;;2.40;;
16928;SDS011;8581;47.334;11.190;2022-10-16T14:27:28;3.00;;;2.55;;
16928;SDS011;8581;47.334;11.190;2022-10-16T14:29:36;3.98;;;2.22;;
16928;SDS011;8581;47.334;11.190;2022-10-16T14:32:20;2.58;;;2.42;;
16928;SDS011;8581;47.334;11.190;2022-10-16T14:34:39;3.85;;;2.40;;
16928;SDS011;8581;47.334;11.190;2022-10-16T14:37:19;2.40;;;2.20;;
16928;SDS011;8581;47.334;11.190;2022-10-16T14:39:52;2.67;;;2.08;;
16928;SDS011;8581;47.334;11.190;2022-10-16T14:42:24;3.33;;;2.33;;
16928;SDS011;8581;47.334;11.190;2022-10-16T14:44:55;2.85;;;2.40;;
16928;SDS011;8581;47.334;11.190;2022-10-16T14:47:27;2.58;;;2.37;;
16928;SDS011;8581;47.334;11.190;2022-10-16T14:49:59;2.98;;;2.50;;
16928;SDS011;8581;47.334;11.190;2022-10-16T14:52:30;2.80;;;2.55;;
16928;SDS011;8581;47.334;11.190;2022-10-16T14:55:02;5.17;;;4.62;;
16928;SDS011;8581;47.334;11.190;2022-10-16T14:57:34;4.40;;;4.00;;
16928;SDS011;8581;47.334;11.190;2022-10-16T15:00:09;3.50;;;3.20;;
16928;SDS011;8581;47.334;11.190;2022-10-16T15:02:50;3.35;;;2.77;;
16928;SDS011;8581;47.334;11.190;2022-10-16T15:05:23;2.98;;;2.70;;
16928;SDS011;8581;47.334;11.190;2022-10-16T15:07:54;3.80;;;2.50;;
16928;SDS011;8581;47.334;11.190;2022-10-16T15:10:26;3.27;;;2.98;;
16928;SDS011;8581;47.334;11.190;2022-10-16T15:12:56;2.95;;;2.72;;
16928;SDS011;8581;47.334;11.190;2022-10-16T15:15:34;2.90;;;2.70;;
16928;SDS011;8581;47.334;11.190;2022-10-16T15:18:05;2.85;;;2.65;;
16928;SDS011;8581;47.334;11.190;2022-10-16T15:20:37;3.85;;;2.77;;
16928;SDS011;8581;47.334;11.190;2022-10-16T15:23:13;2.90;;;2.70;;
16928;SDS011;8581;47.334;11.190;2022-10-16T15:25:43;2.92;;;2.72;;
16928;SDS011;8581;47.334;11.190;2022-10-16T15:28:15;4.30;;;2.70;;
16928;SDS011;8581;47.334;11.190;2022-10-16T15:30:48;4.42;;;3.05;;
16928;SDS011;8581;47.334;11.190;2022-10-16T15:33:20;3.02;;;2.83;;
16928;SDS011;8581;47.334;11.190;2022-10-16T15:35:50;3.55;;;2.60;;
16928;SDS011;8581;47.334;11.190;2022-10-16T15:38:22;2.98;;;2.60;;
16928;SDS011;8581;47.334;11.190;2022-10-16T15:40:53;2.92;;;2.62;;
16928;SDS011;8581;47.334;11.190;2022-10-16T15:43:25;2.52;;;2.40;;
16928;SDS011;8581;47.334;11.190;2022-10-16T15:46:00;5.00;;;2.83;;
16928;SDS011;8581;47.334;11.190;2022-10-16T15:48:33;4.45;;;2.98;;
16928;SDS011;8581;47.334;11.190;2022-10-16T15:51:04;3.67;;;3.10;;
16928;SDS011;8581;47.334;11.190;2022-10-16T15:53:36;3.80;;;2.77;;
16928;SDS011;8581;47.334;11.190;2022-10-16T15:56:08;4.85;;;2.87;;
16928;SDS011;8581;47.334;11.190;2022-10-16T15:58:39;3.45;;;3.00;;
16928;SDS011;8581;47.334;11.190;2022-10-16T16:01:11;3.30;;;3.00;;
16928;SDS011;8581;47.334;11.190;2022-10-16T16:03:42;3.00;;;2.70;;
16928;SDS011;8581;47.334;11.190;2022-10-16T16:06:14;3.70;;;3.40;;
16928;SDS011;8581;47.334;11.190;2022-10-16T16:08:46;3.65;;;3.00;;
16928;SDS011;8581;47.334;11.190;2022-10-16T16:11:18;4.28;;;3.12;;
16928;SDS011;8581;47.334;11.190;2022-10-16T16:13:49;5.03;;;4.62;;
16928;SDS011;8581;47.334;11.190;2022-10-16T16:16:20;6.20;;;4.83;;
16928;SDS011;8581;47.334;11.190;2022-10-16T16:18:52;5.07;;;4.60;;